TAF and METAR

Decoding for American and Canadian METARs and TAFs is not fully implemented.

Could not understand the following METAR

KAIK 192055Z AUTO 06010G14KT 3SM -RA OVC003 15/15 A2987 RMK AO2 LTG DSNT SW
No TAF available for Aiken Municipal Airport
Aiken Municipal Airport in United States of America at 161m

Latest 5 airports